Time;durP1;ratioP1;P1;durP2;ratioP2;P2;SDS_P1;SDS_P2;PMS_P1;PMS_P2;Temp;Humidity;BMP_temperature;BMP_pressure;BME280_temperature;BME280_humidity;BME280_pressure;Samples;Min_cycle;Max_cycle;Signal;HPM_P1;HPM_P2
2024/03/26 00:00:06;;;;;;;3.50;3.00;;;;;;;12.18;51.15;99017.21;108285;1253;61116;-67
2024/03/26 00:02:33;;;;;;;3.80;3.20;;;;;;;12.14;51.31;99018.36;108289;1254;61241;-67
2024/03/26 00:05:00;;;;;;;5.10;2.90;;;;;;;12.17;51.30;99019.73;108315;1254;74518;-67
2024/03/26 00:07:27;;;;;;;5.20;3.30;;;;;;;12.11;51.37;99019.05;108318;1253;70169;-67
2024/03/26 00:09:53;;;;;;;3.10;2.80;;;;;;;12.10;51.36;99019.11;108238;1254;72678;-67
2024/03/26 00:12:20;;;;;;;4.30;2.90;;;;;;;12.22;51.13;99013.80;108240;1254;61116;-68
2024/03/26 00:14:47;;;;;;;4.50;3.00;;;;;;;12.17;51.19;99015.19;108251;1252;61207;-67
2024/03/26 00:17:13;;;;;;;3.70;3.00;;;;;;;12.18;51.32;99014.41;108152;1254;74454;-67
2024/03/26 00:19:40;;;;;;;3.30;2.50;;;;;;;12.20;51.26;99010.59;108182;1253;59490;-66
2024/03/26 00:22:06;;;;;;;5.00;3.40;;;;;;;12.29;50.97;99010.36;108192;1253;61209;-67
2024/03/26 00:24:33;;;;;;;5.50;3.40;;;;;;;12.30;50.91;99010.00;108185;1252;61208;-67
2024/03/26 00:27:00;;;;;;;6.50;3.20;;;;;;;12.25;50.99;99010.63;108167;1256;61135;-67
2024/03/26 00:29:26;;;;;;;4.10;3.00;;;;;;;12.34;50.78;99015.87;108236;1252;74416;-66
2024/03/26 00:31:53;;;;;;;4.70;2.90;;;;;;;12.39;50.73;99015.92;108252;1253;70336;-67
2024/03/26 00:34:19;;;;;;;4.10;2.90;;;;;;;12.33;50.88;99018.59;108225;1254;72447;-66
2024/03/26 00:36:46;;;;;;;3.50;2.80;;;;;;;12.46;50.45;99019.55;108222;1253;61228;-67
2024/03/26 00:39:12;;;;;;;6.90;3.30;;;;;;;12.53;50.45;99018.05;108230;1254;61110;-67
2024/03/26 00:41:39;;;;;;;5.70;3.10;;;;;;;12.63;50.16;99019.15;108295;1254;61180;-68
2024/03/26 00:44:05;;;;;;;3.70;3.00;;;;;;;12.60;50.28;99017.45;108259;1253;61113;-67
2024/03/26 00:46:32;;;;;;;5.40;3.60;;;;;;;12.62;50.14;99019.21;108263;1256;72490;-67
2024/03/26 00:48:59;;;;;;;5.60;2.90;;;;;;;12.55;50.33;99019.02;108239;1256;61151;-67
2024/03/26 00:51:25;;;;;;;8.30;3.10;;;;;;;12.61;50.11;99017.05;108188;1253;61110;-67
2024/03/26 00:53:52;;;;;;;5.50;3.20;;;;;;;12.55;50.22;99012.83;108231;1253;61368;-67
2024/03/26 00:56:18;;;;;;;3.70;2.80;;;;;;;12.57;50.07;99012.48;108173;1254;61081;-67
2024/03/26 00:58:45;;;;;;;5.20;3.20;;;;;;;12.50;50.24;99011.40;108212;1256;61109;-67
2024/03/26 01:01:11;;;;;;;3.60;2.90;;;;;;;12.38;50.35;99011.77;108255;1254;61246;-67
2024/03/26 01:03:38;;;;;;;4.70;2.70;;;;;;;12.46;50.18;99009.90;108243;1252;61112;-66
2024/03/26 01:06:05;;;;;;;5.10;3.10;;;;;;;12.43;50.17;99008.69;108230;1253;74632;-66
2024/03/26 01:08:32;;;;;;;4.90;2.90;;;;;;;12.38;50.12;99006.98;108241;1256;70951;-66
2024/03/26 01:10:58;;;;;;;3.50;2.30;;;;;;;12.36;50.11;99009.96;108161;1252;72546;-66
2024/03/26 01:13:25;;;;;;;6.50;2.60;;;;;;;12.31;50.11;99004.64;108209;1254;61125;-66
2024/03/26 01:15:51;;;;;;;3.10;2.70;;;;;;;12.36;50.01;99003.98;108167;1254;61192;-67
2024/03/26 01:18:18;;;;;;;3.00;2.70;;;;;;;12.33;49.91;99006.42;108185;1254;74567;-66
2024/03/26 01:20:45;;;;;;;4.70;2.60;;;;;;;12.29;50.05;99011.99;108278;1254;69010;-67
2024/03/26 01:23:11;;;;;;;3.40;2.50;;;;;;;12.22;50.08;99016.79;108201;1254;72644;-67
2024/03/26 01:25:38;;;;;;;8.70;2.60;;;;;;;12.12;50.32;99023.20;108225;1256;60377;-66
2024/03/26 01:28:04;;;;;;;4.90;2.50;;;;;;;12.11;50.24;99024.20;108204;1253;61170;-67
2024/03/26 01:30:31;;;;;;;5.60;2.80;;;;;;;12.12;50.29;99027.64;108199;1253;74502;-67
2024/03/26 01:32:58;;;;;;;5.40;2.90;;;;;;;12.15;50.14;99027.60;108259;1252;70270;-67
2024/03/26 01:35:25;;;;;;;3.60;2.30;;;;;;;12.10;50.23;99025.14;108337;1251;61188;-66
2024/03/26 01:37:53;;;;;;;4.50;2.70;;;;;;;12.10;50.25;99023.20;108297;1255;61242;-66
2024/03/26 01:40:19;;;;;;;3.80;2.50;;;;;;;12.05;50.28;99018.41;108229;1251;61118;-66
2024/03/26 01:42:46;;;;;;;3.50;2.50;;;;;;;12.03;50.35;99018.89;108320;1251;61106;-66
2024/03/26 01:45:12;;;;;;;2.90;2.40;;;;;;;12.13;50.09;99023.69;108268;1255;61178;-66
2024/03/26 01:47:39;;;;;;;4.10;2.30;;;;;;;12.01;50.33;99026.20;108298;1251;71438;-66
2024/03/26 01:50:12;;;;;;;4.00;3.10;;;;;;;11.94;50.55;99031.34;108319;1251;61124;-66
2024/03/26 01:52:39;;;;;;;6.20;3.20;;;;;;;12.00;50.51;99035.94;108340;1255;60473;-66
2024/03/26 01:55:06;;;;;;;6.00;3.10;;;;;;;11.89;50.63;99037.07;108372;1251;74798;-66
2024/03/26 01:57:36;;;;;;;4.00;2.90;;;;;;;11.88;50.73;99039.09;108324;1251;70965;-66
2024/03/26 02:00:03;;;;;;;4.90;3.10;;;;;;;11.85;50.81;99039.24;108307;1251;73061;-67
2024/03/26 02:02:38;;;;;;;3.90;2.80;;;;;;;11.78;50.84;99045.98;108299;1251;61246;-66
2024/03/26 02:05:05;;;;;;;6.10;3.10;;;;;;;11.79;50.90;99045.73;108332;1251;61233;-67
2024/03/26 02:07:32;;;;;;;4.40;2.80;;;;;;;11.78;50.86;99048.11;108296;1251;74645;-67
2024/03/26 02:09:58;;;;;;;5.20;3.20;;;;;;;11.79;50.87;99049.60;108326;1251;70444;-66
2024/03/26 02:12:25;;;;;;;5.20;3.20;;;;;;;11.82;50.83;99053.81;108273;1255;72515;-67
2024/03/26 02:14:52;;;;;;;5.50;3.00;;;;;;;11.76;50.91;99057.55;108284;1251;61100;-67
2024/03/26 02:17:18;;;;;;;8.40;3.40;;;;;;;11.66;51.20;99057.92;108269;1251;61048;-66
2024/03/26 02:19:45;;;;;;;5.30;3.30;;;;;;;11.70;51.10;99056.67;108279;1254;61221;-67
2024/03/26 02:22:11;;;;;;;5.10;3.30;;;;;;;11.67;51.12;99057.37;108249;1254;61192;-67
2024/03/26 02:24:38;;;;;;;5.30;3.00;;;;;;;11.74;50.99;99060.27;108202;1253;72589;-67
2024/03/26 02:27:04;;;;;;;4.70;2.90;;;;;;;11.74;50.96;99056.61;108150;1256;61478;-67
2024/03/26 02:29:31;;;;;;;5.00;3.50;;;;;;;11.65;51.14;99053.07;108174;1252;61077;-67
2024/03/26 02:31:58;;;;;;;5.60;3.20;;;;;;;11.69;51.08;99047.37;108240;1253;61205;-68
2024/03/26 02:34:24;;;;;;;5.60;3.00;;;;;;;11.78;50.93;99045.81;108285;1251;61119;-66
2024/03/26 02:36:51;;;;;;;6.50;3.40;;;;;;;11.73;50.88;99043.47;108292;1251;60372;-67
2024/03/26 02:39:18;;;;;;;6.40;3.20;;;;;;;11.64;51.15;99050.52;108293;1251;61262;-66
2024/03/26 02:41:44;;;;;;;6.80;3.20;;;;;;;11.72;50.81;99051.09;108351;1251;61221;-67
2024/03/26 02:44:10;;;;;;;4.50;3.10;;;;;;;11.69;50.96;99054.63;108339;1251;74366;-67
2024/03/26 02:46:37;;;;;;;4.50;3.00;;;;;;;11.81;50.71;99061.80;108227;1251;61007;-67
2024/03/26 02:49:04;;;;;;;5.40;2.90;;;;;;;11.95;50.38;99061.20;108375;1251;61304;-67
2024/03/26 02:51:30;;;;;;;5.30;2.70;;;;;;;11.98;50.32;99065.04;108267;1251;61249;-67
2024/03/26 02:53:57;;;;;;;4.20;2.70;;;;;;;11.91;50.37;99070.16;108301;1251;61178;-67
2024/03/26 02:56:23;;;;;;;5.50;2.90;;;;;;;11.90;50.45;99073.59;108352;1251;61116;-67
2024/03/26 02:58:50;;;;;;;4.00;2.80;;;;;;;11.90;50.42;99084.67;108327;1251;61321;-67
2024/03/26 03:01:16;;;;;;;4.30;2.80;;;;;;;11.94;50.30;99085.50;108281;1255;61233;-66
2024/03/26 03:03:43;;;;;;;5.80;2.80;;;;;;;11.89;50.41;99089.48;108268;1251;61217;-67
2024/03/26 03:06:09;;;;;;;5.60;2.60;;;;;;;11.96;50.19;99089.11;108255;1251;61195;-66
2024/03/26 03:08:37;;;;;;;3.70;2.70;;;;;;;11.93;50.27;99094.71;108205;1251;74549;-67
2024/03/26 03:11:04;;;;;;;3.60;2.30;;;;;;;11.95;50.17;99099.17;108234;1251;70337;-66
2024/03/26 03:13:31;;;;;;;4.40;2.70;;;;;;;11.99;50.13;99102.64;108294;1256;71321;-66
2024/03/26 03:15:57;;;;;;;4.90;2.60;;;;;;;12.02;50.07;99103.70;108305;1251;61233;-66
2024/03/26 03:18:27;;;;;;;3.80;2.20;;;;;;;12.00;50.02;99110.70;108345;1251;61180;-67
2024/03/26 03:20:54;;;;;;;5.30;2.70;;;;;;;12.03;50.01;99116.83;108300;1251;74587;-66
2024/03/26 03:23:20;;;;;;;2.60;2.30;;;;;;;12.06;49.94;99118.63;108206;1251;69959;-66
2024/03/26 03:25:54;;;;;;;4.50;2.50;;;;;;;12.00;50.12;99121.42;108230;1251;61045;-66
2024/03/26 03:28:20;;;;;;;4.40;2.50;;;;;;;11.90;50.24;99129.36;108253;1251;61057;-66
2024/03/26 03:30:47;;;;;;;8.90;2.70;;;;;;;11.90;50.24;99129.02;108268;1251;61010;-67
2024/03/26 03:33:13;;;;;;;2.80;2.00;;;;;;;11.80;50.46;99126.79;108264;1252;74635;-66
2024/03/26 03:35:40;;;;;;;4.90;2.30;;;;;;;11.81;50.31;99131.79;108298;1251;69023;-67
2024/03/26 03:38:07;;;;;;;4.30;2.60;;;;;;;11.90;50.19;99132.38;108288;1251;72634;-66
2024/03/26 03:40:34;;;;;;;3.80;2.10;;;;;;;11.87;50.25;99135.52;108267;1251;61216;-66
2024/03/26 03:43:01;;;;;;;3.50;2.00;;;;;;;11.90;50.17;99137.96;108279;1251;60991;-67
2024/03/26 03:45:28;;;;;;;2.10;1.90;;;;;;;11.87;50.13;99136.40;108278;1251;74494;-67
2024/03/26 03:47:55;;;;;;;4.00;2.50;;;;;;;11.83;50.29;99140.62;108275;1251;70596;-66
2024/03/26 03:50:21;;;;;;;4.90;2.40;;;;;;;11.87;50.21;99141.69;108284;1251;73094;-66
2024/03/26 03:52:48;;;;;;;4.80;2.10;;;;;;;12.02;49.89;99141.88;108297;1255;61206;-67
2024/03/26 03:55:15;;;;;;;3.90;2.50;;;;;;;11.93;50.14;99141.18;108293;1251;61181;-67
2024/03/26 03:57:44;;;;;;;2.60;2.00;;;;;;;11.95;49.98;99142.45;108258;1251;74645;-65
2024/03/26 04:00:11;;;;;;;6.80;2.10;;;;;;;12.02;49.86;99146.95;108278;1251;68639;-67
2024/03/26 04:02:38;;;;;;;2.40;2.00;;;;;;;11.99;49.73;99151.39;108296;1252;72743;-67
2024/03/26 04:05:05;;;;;;;4.10;2.30;;;;;;;12.10;49.49;99152.66;108252;1252;61190;-68
2024/03/26 04:07:31;;;;;;;3.60;2.00;;;;;;;12.12;49.36;99159.77;108220;1251;61096;-66
2024/03/26 04:09:58;;;;;;;5.30;2.30;;;;;;;12.16;49.24;99164.64;108207;1251;61339;-66
2024/03/26 04:12:25;;;;;;;2.90;2.00;;;;;;;12.21;49.17;99166.98;108237;1251;69002;-66
2024/03/26 04:14:51;;;;;;;3.90;2.10;;;;;;;12.22;49.00;99166.75;108164;1255;61189;-67
2024/03/26 04:17:18;;;;;;;4.70;2.10;;;;;;;12.19;49.13;99165.85;108253;1256;61071;-66
2024/03/26 04:19:44;;;;;;;4.70;2.10;;;;;;;12.27;48.94;99168.20;108284;1255;61294;-68
2024/03/26 04:22:11;;;;;;;5.20;2.20;;;;;;;12.28;48.91;99176.23;108241;1251;61092;-67
2024/03/26 04:24:37;;;;;;;4.20;2.20;;;;;;;12.51;48.45;99180.19;108157;1251;141818;-68
2024/03/26 04:28:05;;;;;;;6.80;2.00;;;;;;;9.95;55.32;99196.50;104968;1291;600217;-67
2024/03/26 04:30:33;;;;;;;8.80;2.10;;;;;;;11.30;51.24;99197.98;107304;1265;60150;-66
2024/03/26 04:33:00;;;;;;;4.00;2.10;;;;;;;11.53;50.86;99204.94;107302;1263;59629;-67
2024/03/26 04:35:27;;;;;;;2.60;1.90;;;;;;;11.63;50.60;99211.79;107250;1265;72961;-67
2024/03/26 04:37:54;;;;;;;3.40;1.90;;;;;;;11.68;50.51;99215.52;107602;1260;69152;-67
2024/03/26 04:40:21;;;;;;;3.10;2.40;;;;;;;11.67;50.50;99220.02;108074;1254;71799;-66
2024/03/26 04:42:49;;;;;;;7.20;2.20;;;;;;;11.75;50.42;99222.21;108111;1251;134847;-66
2024/03/26 04:45:16;;;;;;;3.60;2.10;;;;;;;11.78;50.36;99225.04;108242;1250;59525;-67
2024/03/26 04:47:43;;;;;;;3.80;2.10;;;;;;;11.61;50.50;99228.09;108176;1250;73003;-66
2024/03/26 04:50:11;;;;;;;3.00;1.80;;;;;;;11.62;50.66;99234.36;108186;1250;69949;-67
2024/03/26 04:52:38;;;;;;;3.00;1.80;;;;;;;11.57;50.71;99241.11;108242;1250;72705;-66
2024/03/26 04:55:05;;;;;;;3.60;2.10;;;;;;;11.54;50.77;99244.60;108136;1250;60226;-67
2024/03/26 04:57:33;;;;;;;1.70;1.60;;;;;;;11.65;50.60;99247.74;108307;1250;60261;-66
2024/03/26 05:00:00;;;;;;;4.10;1.80;;;;;;;11.54;50.82;99252.00;108219;1250;73932;-66
2024/03/26 05:02:28;;;;;;;3.40;1.90;;;;;;;11.52;50.95;99252.80;108009;1258;70109;-66
2024/03/26 05:04:55;;;;;;;7.70;2.10;;;;;;;11.85;50.35;99250.48;108222;1255;72374;-66
2024/03/26 05:07:23;;;;;;;3.90;2.00;;;;;;;11.90;50.15;99252.30;108189;1250;60396;-66
2024/03/26 05:09:50;;;;;;;3.70;2.00;;;;;;;11.87;50.24;99260.88;108173;1250;60481;-67
2024/03/26 05:12:17;;;;;;;3.70;2.50;;;;;;;11.91;50.27;99263.15;108165;1250;73824;-66
2024/03/26 05:14:44;;;;;;;4.80;2.20;;;;;;;11.85;50.43;99269.84;108153;1250;69023;-67
2024/03/26 05:17:12;;;;;;;3.20;1.90;;;;;;;11.91;50.35;99269.46;108135;1253;71708;-66
2024/03/26 05:19:39;;;;;;;2.00;1.70;;;;;;;12.02;50.11;99272.59;108010;1254;59644;-67
2024/03/26 05:22:06;;;;;;;3.40;2.00;;;;;;;12.00;50.10;99274.64;108071;1253;60375;-67
2024/03/26 05:24:34;;;;;;;4.40;1.90;;;;;;;12.06;50.04;99277.61;107994;1252;72531;-67
2024/03/26 05:27:01;;;;;;;5.20;2.20;;;;;;;12.03;50.01;99276.92;108087;1253;68723;-67
2024/03/26 05:29:29;;;;;;;5.90;1.90;;;;;;;11.98;50.28;99282.16;108090;1253;73356;-67
2024/03/26 05:31:56;;;;;;;4.00;2.10;;;;;;;11.98;50.36;99285.45;108133;1253;60498;-67
2024/03/26 05:34:23;;;;;;;3.30;2.00;;;;;;;12.14;49.94;99288.43;108095;1252;60413;-66
2024/03/26 05:36:51;;;;;;;5.80;1.70;;;;;;;12.26;49.58;99290.40;108178;1251;73943;-66
2024/03/26 05:39:19;;;;;;;3.90;1.90;;;;;;;12.22;49.65;99294.83;108037;1251;69306;-66
2024/03/26 05:41:48;;;;;;;3.30;1.90;;;;;;;12.22;49.70;99303.64;108188;1252;72482;-66
2024/03/26 05:44:16;;;;;;;3.40;1.80;;;;;;;12.35;49.33;99306.58;108194;1251;60364;-67
2024/03/26 05:46:43;;;;;;;3.70;1.80;;;;;;;12.36;49.42;99312.70;108179;1253;61363;-67
2024/03/26 05:49:11;;;;;;;3.70;2.00;;;;;;;12.45;49.32;99311.83;108177;1251;72682;-67
2024/03/26 05:51:38;;;;;;;2.40;2.00;;;;;;;12.41;49.29;99315.58;108022;1253;67733;-67
2024/03/26 05:54:05;;;;;;;3.70;2.10;;;;;;;12.32;49.41;99317.31;108207;1254;72692;-67
2024/03/26 05:56:32;;;;;;;4.50;1.90;;;;;;;12.44;49.25;99319.81;108279;1253;59587;-66
2024/03/26 05:59:00;;;;;;;2.90;1.70;;;;;;;12.43;49.34;99320.59;108172;1251;62419;-66
2024/03/26 06:01:27;;;;;;;2.80;1.80;;;;;;;12.33;49.37;99326.42;108222;1251;73813;-66
2024/03/26 06:03:54;;;;;;;6.70;1.80;;;;;;;12.37;49.39;99330.08;108233;1251;69412;-67
2024/03/26 06:06:23;;;;;;;4.30;2.30;;;;;;;12.38;49.45;99327.34;108200;1253;71474;-67
2024/03/26 06:08:50;;;;;;;2.90;1.50;;;;;;;12.48;49.34;99328.38;108207;1253;60929;-67
2024/03/26 06:11:18;;;;;;;4.70;1.80;;;;;;;12.48;49.22;99328.23;108180;1251;60429;-67
2024/03/26 06:13:45;;;;;;;2.00;1.50;;;;;;;12.47;49.12;99334.80;108179;1253;72637;-67
2024/03/26 06:16:12;;;;;;;2.00;1.70;;;;;;;12.54;49.01;99334.88;108163;1252;69611;-68
2024/03/26 06:18:39;;;;;;;3.80;2.00;;;;;;;12.62;48.93;99340.06;108132;1251;72438;-68
2024/03/26 06:21:07;;;;;;;2.20;2.00;;;;;;;12.69;48.92;99340.73;108197;1257;60994;-67
2024/03/26 06:23:34;;;;;;;3.80;1.80;;;;;;;12.80;48.84;99339.73;108191;1253;60311;-67
2024/03/26 06:26:01;;;;;;;3.70;1.80;;;;;;;12.83;48.64;99343.77;108282;1251;72601;-68
2024/03/26 06:28:28;;;;;;;5.40;1.80;;;;;;;12.90;48.38;99348.00;108138;1254;70090;-68
2024/03/26 06:30:56;;;;;;;3.70;2.10;;;;;;;13.02;48.13;99349.19;108141;1252;72728;-68
2024/03/26 06:33:23;;;;;;;3.90;1.70;;;;;;;13.17;47.88;99348.30;108170;1252;60846;-67
2024/03/26 06:35:53;;;;;;;4.80;2.00;;;;;;;13.36;47.60;99350.89;108201;1253;60291;-68
2024/03/26 06:38:21;;;;;;;2.90;1.90;;;;;;;13.42;47.36;99349.46;108175;1251;73150;-67
2024/03/26 06:40:48;;;;;;;3.00;1.60;;;;;;;13.22;47.64;99352.02;108226;1253;69918;-68
2024/03/26 06:43:15;;;;;;;2.60;1.80;;;;;;;13.18;47.45;99353.33;108246;1253;72697;-67
2024/03/26 06:45:42;;;;;;;3.30;1.60;;;;;;;13.16;47.57;99358.02;108217;1257;60406;-67
2024/03/26 06:48:10;;;;;;;3.20;1.60;;;;;;;13.32;47.58;99358.52;108277;1252;59956;-67
2024/03/26 06:50:37;;;;;;;3.80;1.80;;;;;;;13.41;47.31;99361.15;108196;1251;72526;-67
2024/03/26 06:53:04;;;;;;;3.70;1.90;;;;;;;13.40;47.46;99364.40;108072;1253;70159;-68
2024/03/26 06:55:32;;;;;;;3.90;2.00;;;;;;;13.47;47.27;99365.90;108257;1252;70696;-68
2024/03/26 06:57:59;;;;;;;4.60;1.60;;;;;;;13.53;47.20;99366.58;108199;1251;59915;-68
2024/03/26 07:00:27;;;;;;;2.20;1.50;;;;;;;13.61;46.80;99367.35;108212;1251;60316;-68
2024/03/26 07:02:57;;;;;;;3.40;1.60;;;;;;;13.73;46.55;99365.36;108145;1257;72676;-67
2024/03/26 07:05:24;;;;;;;4.70;1.80;;;;;;;13.73;46.64;99362.58;108136;1251;72121;-68
2024/03/26 07:07:52;;;;;;;1.70;1.50;;;;;;;13.99;46.21;99367.30;108150;1252;71401;-68
2024/03/26 07:10:20;;;;;;;1.70;1.50;;;;;;;14.09;45.71;99363.65;108213;1251;61843;-68
2024/03/26 07:12:48;;;;;;;3.60;2.00;;;;;;;14.07;45.55;99368.56;108176;1252;62487;-68
2024/03/26 07:15:15;;;;;;;3.40;1.90;;;;;;;14.07;45.63;99372.25;108164;1253;74790;-67
2024/03/26 07:17:42;;;;;;;4.50;1.70;;;;;;;14.18;45.57;99376.84;108212;1251;73078;-68
2024/03/26 07:20:11;;;;;;;5.30;1.80;;;;;;;14.29;45.39;99379.50;108178;1252;75051;-67
2024/03/26 07:22:38;;;;;;;3.10;1.50;;;;;;;14.41;45.06;99384.38;108154;1252;61021;-67
2024/03/26 07:25:06;;;;;;;2.80;1.60;;;;;;;14.50;44.77;99385.19;107982;1252;60432;-67
2024/03/26 07:27:34;;;;;;;5.60;2.00;;;;;;;14.51;44.45;99390.23;108167;1251;72797;-67
2024/03/26 07:30:04;;;;;;;5.60;1.80;;;;;;;14.50;44.25;99390.84;108228;1259;70590;-67
2024/03/26 07:32:31;;;;;;;3.10;1.70;;;;;;;14.63;43.85;99393.02;108214;1253;71218;-67
2024/03/26 07:34:58;;;;;;;6.90;1.60;;;;;;;14.65;43.71;99395.90;108175;1251;60689;-67
2024/03/26 07:37:26;;;;;;;3.00;1.60;;;;;;;14.67;43.04;99401.95;108231;1252;61162;-67
2024/03/26 07:39:53;;;;;;;5.20;1.80;;;;;;;15.00;42.91;99408.95;108197;1251;73003;-69
2024/03/26 07:42:20;;;;;;;3.10;1.60;;;;;;;14.99;42.18;99406.58;108225;1251;68818;-68
2024/03/26 07:44:48;;;;;;;4.90;1.70;;;;;;;15.24;42.02;99405.42;108198;1251;74954;-67
2024/03/26 07:47:15;;;;;;;4.10;1.40;;;;;;;15.44;41.97;99404.74;108180;1253;59664;-68
2024/03/26 07:49:44;;;;;;;4.20;1.80;;;;;;;15.54;41.46;99406.87;108205;1254;60521;-69
2024/03/26 07:52:12;;;;;;;3.20;1.40;;;;;;;15.68;41.16;99406.48;108290;1253;75829;-67
2024/03/26 07:54:39;;;;;;;2.50;1.20;;;;;;;15.63;40.56;99405.39;108255;1253;70495;-67
2024/03/26 07:57:07;;;;;;;2.90;1.70;;;;;;;15.75;40.36;99410.25;108225;1253;73025;-67
2024/03/26 07:59:34;;;;;;;7.50;1.80;;;;;;;15.90;39.86;99415.76;108128;1253;60422;-67
2024/03/26 08:02:02;;;;;;;2.30;1.30;;;;;;;16.06;39.76;99421.86;108183;1251;60288;-66
2024/03/26 08:04:29;;;;;;;2.80;1.30;;;;;;;16.11;39.38;99428.45;108291;1254;73221;-67
2024/03/26 08:06:57;;;;;;;5.20;1.40;;;;;;;16.07;39.14;99428.84;108195;1257;72573;-69
2024/03/26 08:09:24;;;;;;;4.80;1.20;;;;;;;16.22;39.21;99426.98;108285;1253;71766;-68
2024/03/26 08:11:52;;;;;;;2.40;1.30;;;;;;;16.43;39.05;99428.28;108270;1253;61319;-67
2024/03/26 08:14:19;;;;;;;2.30;1.30;;;;;;;16.49;38.34;99431.36;108220;1253;60516;-67
2024/03/26 08:16:47;;;;;;;2.80;1.30;;;;;;;16.61;38.03;99436.20;108267;1251;72885;-67
2024/03/26 08:19:14;;;;;;;2.30;1.20;;;;;;;16.73;37.89;99436.89;108232;1253;69417;-68
2024/03/26 08:21:41;;;;;;;2.80;1.50;;;;;;;16.90;38.07;99439.20;108146;1253;72831;-67
2024/03/26 08:24:08;;;;;;;3.10;1.10;;;;;;;17.17;37.89;99438.66;108166;1251;60996;-67
2024/03/26 08:26:36;;;;;;;3.40;1.30;;;;;;;17.35;36.53;99440.08;108141;1251;61152;-67
2024/03/26 08:29:03;;;;;;;1.20;1.10;;;;;;;17.35;36.65;99443.82;108157;1251;73930;-68
2024/03/26 08:31:31;;;;;;;2.80;1.10;;;;;;;17.38;36.16;99441.79;108206;1253;69262;-68
2024/03/26 08:33:58;;;;;;;3.30;1.20;;;;;;;17.46;36.12;99441.08;108182;1253;73396;-68
2024/03/26 08:36:25;;;;;;;3.80;1.10;;;;;;;17.71;36.25;99443.34;108013;1256;62758;-68
2024/03/26 08:38:53;;;;;;;2.50;1.20;;;;;;;18.07;35.59;99444.67;108046;1252;61259;-67
2024/03/26 08:41:20;;;;;;;2.90;1.30;;;;;;;18.11;35.06;99443.98;108049;1253;74702;-68
2024/03/26 08:43:47;;;;;;;1.60;1.10;;;;;;;18.30;34.74;99446.07;108132;1253;69669;-67
2024/03/26 08:46:15;;;;;;;2.30;1.10;;;;;;;18.27;34.22;99440.81;108002;1254;71547;-67
2024/03/26 08:48:42;;;;;;;1.50;0.90;;;;;;;18.55;34.52;99441.52;108028;1254;61116;-67
2024/03/26 08:51:10;;;;;;;4.20;1.60;;;;;;;18.91;33.90;99441.27;108047;1253;61034;-67
2024/03/26 08:53:37;;;;;;;2.70;1.10;;;;;;;19.27;33.71;99437.38;107965;1253;73823;-67
2024/03/26 08:56:05;;;;;;;2.50;1.20;;;;;;;19.47;32.82;99435.92;108020;1253;70736;-67
2024/03/26 08:58:59;;;;;;;2.90;0.90;;;;;;;19.62;32.44;99432.90;107966;1254;71463;-67
2024/03/26 09:01:26;;;;;;;1.10;0.80;;;;;;;19.84;32.36;99434.54;107931;1253;61238;-67
2024/03/26 09:03:53;;;;;;;2.80;1.10;;;;;;;20.13;32.04;99432.90;108011;1253;61102;-71
2024/03/26 09:06:20;;;;;;;4.30;0.90;;;;;;;20.47;31.78;99434.95;107970;1258;76644;-68
2024/03/26 09:08:48;;;;;;;2.40;0.90;;;;;;;20.71;31.67;99437.23;107957;1253;69376;-68
2024/03/26 09:11:16;;;;;;;1.20;0.90;;;;;;;21.04;31.14;99438.85;107932;1255;75049;-68
2024/03/26 09:13:45;;;;;;;2.40;1.00;;;;;;;21.01;29.64;99436.85;108028;1253;60452;-68
2024/03/26 09:16:13;;;;;;;3.40;1.20;;;;;;;20.83;29.92;99442.59;107982;1253;61130;-68
2024/03/26 09:18:40;;;;;;;3.70;0.90;;;;;;;20.77;30.00;99446.16;108164;1252;73532;-68
2024/03/26 09:21:07;;;;;;;1.60;1.20;;;;;;;21.07;29.84;99445.61;108053;1258;71065;-68
2024/03/26 09:23:35;;;;;;;0.90;0.80;;;;;;;21.34;29.28;99446.83;108017;1254;73637;-68
2024/03/26 09:26:03;;;;;;;2.00;0.70;;;;;;;21.43;28.95;99443.70;107934;1253;61810;-68
2024/03/26 09:28:30;;;;;;;2.20;0.90;;;;;;;21.70;29.10;99438.27;108105;1253;62652;-67
2024/03/26 09:30:58;;;;;;;4.60;1.00;;;;;;;21.83;28.71;99437.63;107949;1257;73206;-68
2024/03/26 09:33:25;;;;;;;1.90;0.90;;;;;;;21.85;28.42;99439.59;107978;1252;72810;-68
2024/03/26 09:35:52;;;;;;;2.70;1.00;;;;;;;22.03;28.33;99444.89;107973;1253;72700;-68
2024/03/26 09:38:20;;;;;;;2.30;0.70;;;;;;;21.95;28.14;99445.91;107980;1254;62683;-68
2024/03/26 09:41:03;;;;;;;1.50;0.80;;;;;;;21.84;28.36;99449.50;108004;1253;61147;-68
2024/03/26 09:43:30;;;;;;;0.90;0.70;;;;;;;21.79;28.04;99448.70;107997;1252;74711;-68
2024/03/26 09:45:58;;;;;;;2.00;0.80;;;;;;;21.66;28.01;99448.70;108004;1253;69828;-68
2024/03/26 09:48:29;;;;;;;4.20;1.00;;;;;;;21.42;28.12;99450.23;107959;1257;73823;-68
2024/03/26 09:50:56;;;;;;;2.40;0.70;;;;;;;21.50;28.28;99453.61;107964;1256;61134;-68
2024/03/26 09:53:27;;;;;;;2.60;1.00;;;;;;;21.71;27.71;99450.95;107970;1253;61205;-68
2024/03/26 09:55:54;;;;;;;1.80;0.80;;;;;;;21.79;27.14;99451.01;108170;1253;75049;-68
2024/03/26 09:58:22;;;;;;;2.00;0.90;;;;;;;21.85;27.33;99448.17;107984;1253;72706;-68
2024/03/26 10:00:49;;;;;;;1.10;0.80;;;;;;;21.91;27.08;99451.73;107967;1253;74900;-68
2024/03/26 10:03:20;;;;;;;3.20;1.10;;;;;;;22.01;27.33;99454.66;108004;1251;62174;-68
2024/03/26 10:05:47;;;;;;;2.00;0.90;;;;;;;22.21;26.67;99453.19;108065;1253;61248;-68
2024/03/26 10:08:15;;;;;;;2.20;0.80;;;;;;;22.13;26.45;99458.04;108056;1253;74755;-68
2024/03/26 10:10:42;;;;;;;1.30;0.90;;;;;;;22.12;26.45;99455.06;108104;1253;72318;-68
2024/03/26 10:13:10;;;;;;;2.70;0.90;;;;;;;22.36;26.20;99458.49;107984;1258;72765;-68
2024/03/26 10:15:38;;;;;;;2.90;0.90;;;;;;;22.33;26.40;99463.30;108069;1253;61140;-68
2024/03/26 10:18:06;;;;;;;1.30;0.80;;;;;;;22.16;26.18;99461.67;107965;1254;61331;-68
2024/03/26 10:20:33;;;;;;;1.00;0.70;;;;;;;22.28;26.33;99468.25;108064;1258;74659;-68
2024/03/26 10:23:03;;;;;;;4.30;0.70;;;;;;;22.56;25.22;99466.45;108050;1253;72239;-68
2024/03/26 10:25:30;;;;;;;2.10;0.80;;;;;;;22.57;25.39;99468.82;108116;1258;72852;-68
2024/03/26 10:28:00;;;;;;;2.90;0.80;;;;;;;22.54;25.44;99466.09;108081;1253;60144;-68
2024/03/26 10:30:28;;;;;;;1.80;0.80;;;;;;;22.80;25.83;99458.26;108099;1253;60236;-69
2024/03/26 10:32:58;;;;;;;5.90;0.90;;;;;;;23.28;25.38;99453.45;108131;1252;73658;-69
2024/03/26 10:35:26;;;;;;;3.90;0.90;;;;;;;23.60;25.00;99453.23;108140;1253;69426;-69
2024/03/26 10:37:57;;;;;;;1.80;1.00;;;;;;;24.17;24.26;99458.61;108121;1253;72464;-69
2024/03/26 10:40:40;;;;;;;3.00;0.90;;;;;;;24.38;23.99;99458.40;107998;1259;61134;-68
2024/03/26 10:43:07;;;;;;;1.10;0.80;;;;;;;24.39;24.26;99452.23;107992;1258;61288;-68
2024/03/26 10:45:34;;;;;;;2.20;0.80;;;;;;;24.43;24.01;99459.45;108065;1253;76887;-69
2024/03/26 10:48:21;;;;;;;2.60;0.90;;;;;;;24.51;23.81;99459.97;107988;1254;71607;-68
2024/03/26 10:50:52;;;;;;;2.40;0.90;;;;;;;24.04;23.60;99450.45;108016;1253;72437;-69
2024/03/26 10:53:22;;;;;;;0.40;0.40;;;;;;;23.37;24.48;99453.58;107973;1253;61126;-68
2024/03/26 10:55:49;;;;;;;1.50;0.80;;;;;;;23.01;24.93;99460.94;107979;1252;58997;-68
2024/03/26 10:58:20;;;;;;;1.30;0.70;;;;;;;22.88;24.66;99460.96;108096;1258;73430;-69
2024/03/26 11:00:47;;;;;;;2.70;1.30;;;;;;;22.93;25.43;99460.06;108019;1253;70521;-69
2024/03/26 11:03:14;;;;;;;4.70;1.10;;;;;;;23.01;25.00;99459.86;107992;1253;70693;-68
2024/03/26 11:05:42;;;;;;;1.80;0.80;;;;;;;22.94;24.99;99466.44;107996;1255;61094;-68
2024/03/26 11:08:19;;;;;;;2.10;1.10;;;;;;;22.86;24.80;99471.51;107944;1260;59998;-68
2024/03/26 11:11:00;;;;;;;1.80;0.80;;;;;;;22.71;25.03;99478.00;108053;1253;73420;-69
2024/03/26 11:13:28;;;;;;;;;;;;;;;22.44;24.90;99479.05;108132;1254;70567;-68
2024/03/26 11:15:55;;;;;;;2.50;0.90;;;;;;;22.38;24.99;99475.83;107959;1254;71529;-68
2024/03/26 11:18:32;;;;;;;3.00;1.10;;;;;;;22.26;25.25;99477.54;107966;1255;61219;-69
2024/03/26 11:21:06;;;;;;;2.90;1.00;;;;;;;22.33;25.00;99481.86;108005;1254;60428;-69
2024/03/26 11:23:35;;;;;;;2.70;1.00;;;;;;;22.38;24.77;99472.44;108024;1254;76839;-69
2024/03/26 11:26:02;;;;;;;5.70;1.30;;;;;;;22.34;24.84;99479.41;108037;1258;70653;-68